Time;durP1;ratioP1;P1;durP2;ratioP2;P2;SDS_P1;SDS_P2;PMS_P1;PMS_P2;Temp;Humidity;BMP_temperature;BMP_pressure;BME280_temperature;BME280_humidity;BME280_pressure;Samples;Min_cycle;Max_cycle;Signal;HPM_P1;HPM_P2
2022/07/06 00:01:20;;;;;;;5.00;1.33;;;;;;;;;;5099793;28;20377;-85
2022/07/06 00:03:47;;;;;;;4.95;1.73;;;;;;;;;;5081223;28;20050;-86
2022/07/06 00:06:13;;;;;;;8.93;2.10;;;;;;;;;;5082679;28;20048;-86
2022/07/06 00:08:40;;;;;;;3.35;1.10;;;;;;;;;;5082800;28;20036;-85
2022/07/06 00:11:06;;;;;;;3.20;1.02;;;;;;;;;;5081691;28;20047;-87
2022/07/06 00:13:32;;;;;;;6.07;1.33;;;;;;;;;;5084863;28;20044;-86
2022/07/06 00:15:58;;;;;;;2.22;1.13;;;;;;;;;;5102603;28;20040;-86
2022/07/06 00:18:24;;;;;;;4.63;2.20;;;;;;;;;;5083183;28;20048;-85
2022/07/06 00:20:50;;;;;;;3.40;1.08;;;;;;;;;;5076956;28;20044;-84
2022/07/06 00:23:16;;;;;;;3.05;1.50;;;;;;;;;;5089865;28;20127;-84
2022/07/06 00:25:42;;;;;;;3.97;1.13;;;;;;;;;;5099891;28;20036;-83
2022/07/06 00:28:08;;;;;;;1.63;1.10;;;;;;;;;;5099672;28;20527;-83
2022/07/06 00:30:34;;;;;;;2.25;1.10;;;;;;;;;;5084505;28;20055;-80
2022/07/06 00:33:00;;;;;;;6.10;1.52;;;;;;;;;;5099621;28;20119;-81
2022/07/06 00:35:27;;;;;;;3.17;1.10;;;;;;;;;;5080684;28;20084;-81
2022/07/06 00:37:53;;;;;;;4.70;1.70;;;;;;;;;;5074035;28;20036;-81
2022/07/06 00:40:19;;;;;;;2.78;1.33;;;;;;;;;;5101423;28;20396;-79
2022/07/06 00:42:46;;;;;;;5.47;1.60;;;14.60;99.90;;;;;;5100039;28;20126;-80
2022/07/06 00:45:13;;;;;;;1.83;1.40;;;;;;;;;;5102154;28;20050;-80
2022/07/06 00:47:40;;;;;;;7.60;1.40;;;14.50;99.90;;;;;;5076738;28;20040;-80
2022/07/06 00:50:13;;;;;;;5.80;2.20;;;;;;;;;;5102226;28;20078;-80
2022/07/06 00:53:03;;;;;;;2.47;1.00;;;14.60;99.90;;;;;;5088947;28;20040;-81
2022/07/06 00:55:41;;;;;;;3.88;1.42;;;14.00;99.90;;;;;;5048217;28;20056;-81
2022/07/06 00:58:07;;;;;;;5.80;1.40;;;;;;;;;;5045337;28;20049;-81
2022/07/06 01:00:34;;;;;;;3.08;1.30;;;;;;;;;;5034971;28;20063;-81
2022/07/06 01:03:00;;;;;;;11.02;1.35;;;;;;;;;;5032905;28;20032;-80
2022/07/06 01:05:26;;;;;;;1.45;1.23;;;;;;;;;;5055062;28;20084;-81
2022/07/06 01:07:53;;;;;;;2.92;1.17;;;14.40;99.90;;;;;;5034584;28;20049;-81
2022/07/06 01:10:21;;;;;;;4.15;1.20;;;14.20;99.90;;;;;;5035256;28;20492;-81
2022/07/06 01:12:48;;;;;;;2.63;1.10;;;;;;;;;;5054063;28;20086;-82
2022/07/06 01:15:16;;;;;;;6.50;1.00;;;;;;;;;;5054434;28;20116;-81
2022/07/06 01:17:43;;;;;;;5.68;1.25;;;14.30;99.90;;;;;;5035382;28;20036;-81
2022/07/06 01:20:13;;;;;;;3.38;1.60;;;;;;;;;;5035219;28;20463;-81
2022/07/06 01:22:39;;;;;;;5.68;1.23;;;;;;;;;;5027791;28;20037;-82
2022/07/06 01:25:06;;;;;;;1.40;1.10;;;14.30;99.90;;;;;;5052521;28;20055;-82
2022/07/06 01:27:34;;;;;;;2.03;1.30;;;14.40;99.90;;;;;;5051476;28;20596;-81
2022/07/06 01:30:00;;;;;;;3.60;1.10;;;;;;;;;;5051878;28;20052;-82
2022/07/06 01:32:26;;;;;;;3.53;1.38;;;;;;;;;;5077149;28;20131;-81
2022/07/06 01:34:52;;;;;;;3.90;1.60;;;;;;;;;;5101794;28;20047;-81
2022/07/06 01:37:18;;;;;;;2.40;0.90;;;;;;;;;;5098236;28;20051;-82
2022/07/06 01:39:44;;;;;;;2.28;1.17;;;;;;;;;;5072318;28;20054;-82
2022/07/06 01:42:10;;;;;;;2.08;1.10;;;;;;;;;;5085517;28;20383;-81
2022/07/06 01:44:36;;;;;;;6.28;1.50;;;;;;;;;;5083172;28;21050;-82
2022/07/06 01:47:03;;;;;;;2.67;0.80;;;;;;;;;;5083037;28;20127;-82
2022/07/06 01:49:29;;;;;;;5.38;1.30;;;;;;;;;;5067559;28;20083;-81
2022/07/06 01:51:55;;;;;;;6.03;1.52;;;;;;;;;;5087038;28;20048;-82
2022/07/06 01:54:21;;;;;;;1.98;1.27;;;;;;;;;;5105408;28;20076;-81
2022/07/06 01:56:47;;;;;;;6.22;1.65;;;;;;;;;;5085792;28;20144;-82
2022/07/06 01:59:13;;;;;;;9.25;1.45;;;;;;;;;;5104203;28;20553;-81
2022/07/06 02:01:39;;;;;;;2.40;1.38;;;;;;;;;;5104973;28;20126;-81
2022/07/06 02:04:05;;;;;;;10.90;2.08;;;;;;;;;;5081695;28;20055;-81
2022/07/06 02:06:31;;;;;;;9.75;1.70;;;;;;;;;;5088899;28;20047;-81
2022/07/06 02:08:57;;;;;;;3.67;1.83;;;;;;;;;;5103727;28;20051;-82
2022/07/06 02:11:23;;;;;;;7.78;1.40;;;14.40;99.90;;;;;;5085411;28;20059;-81
2022/07/06 02:13:49;;;;;;;2.67;1.50;;;;;;;;;;5078600;28;20416;-81
2022/07/06 02:16:15;;;;;;;4.35;1.38;;;;;;;;;;5093322;28;20092;-81
2022/07/06 02:18:41;;;;;;;7.18;2.10;;;;;;;;;;5084978;28;20070;-81
2022/07/06 02:21:07;;;;;;;3.85;1.35;;;;;;;;;;5085129;28;20069;-81
2022/07/06 02:23:33;;;;;;;6.45;1.17;;;;;;;;;;5070765;28;20515;-81
2022/07/06 02:25:59;;;;;;;4.82;1.40;;;;;;;;;;5087218;28;20381;-81
2022/07/06 02:28:26;;;;;;;5.20;1.13;;;;;;;;;;5109359;28;20499;-82
2022/07/06 02:30:52;;;;;;;4.57;1.20;;;;;;;;;;5085400;28;20138;-82
2022/07/06 02:33:18;;;;;;;4.35;1.35;;;;;;;;;;5103735;28;20112;-81
2022/07/06 02:35:44;;;;;;;11.57;1.98;;;;;;;;;;5097817;28;20054;-81
2022/07/06 02:38:10;;;;;;;4.50;1.33;;;;;;;;;;5105846;28;20044;-81
2022/07/06 02:40:37;;;;;;;2.40;1.00;;;;;;;;;;5098688;28;20043;-81
2022/07/06 02:43:03;;;;;;;5.75;1.83;;;;;;;;;;5105194;28;20077;-81
2022/07/06 02:45:29;;;;;;;7.15;1.80;;;;;;;;;;5103195;28;20057;-81
2022/07/06 02:47:57;;;;;;;5.07;1.73;;;;;;;;;;5111042;28;20127;-81
2022/07/06 02:50:23;;;;;;;2.25;1.13;;;;;;;;;;5104286;28;20051;-81
2022/07/06 02:52:49;;;;;;;5.35;1.50;;;;;;;;;;5085338;28;20036;-82
2022/07/06 02:55:16;;;;;;;1.90;1.02;;;;;;;;;;5109409;28;20073;-81
2022/07/06 02:57:42;;;;;;;7.22;1.58;;;;;;;;;;5106627;28;20047;-81
2022/07/06 03:00:09;;;;;;;8.88;1.52;;;14.00;99.90;;;;;;5102201;28;20093;-81
2022/07/06 03:02:35;;;;;;;3.30;1.15;;;;;;;;;;5104641;28;20434;-81
2022/07/06 03:05:01;;;;;;;6.82;1.40;;;;;;;;;;5104491;28;20047;-81
2022/07/06 03:07:27;;;;;;;6.63;1.30;;;14.30;99.90;;;;;;5084166;28;20131;-81
2022/07/06 03:09:53;;;;;;;2.35;1.00;;;;;;;;;;5110601;28;20118;-81
2022/07/06 03:12:19;;;;;;;4.07;1.17;;;;;;;;;;5103434;28;20039;-81
2022/07/06 03:14:45;;;;;;;4.07;1.50;;;;;;;;;;5099045;28;20067;-82
2022/07/06 03:17:11;;;;;;;3.30;1.08;;;;;;;;;;5087926;28;20040;-81
2022/07/06 03:19:38;;;;;;;4.43;1.52;;;;;;;;;;5086881;28;20138;-81
2022/07/06 03:22:04;;;;;;;2.25;1.20;;;;;;;;;;5082450;28;20076;-81
2022/07/06 03:24:30;;;;;;;3.95;1.38;;;;;;;;;;5095774;28;20089;-82
2022/07/06 03:26:56;;;;;;;3.53;1.25;;;;;;;;;;5078304;28;20052;-81
2022/07/06 03:29:22;;;;;;;3.45;1.13;;;;;;;;;;5102049;28;20036;-82
2022/07/06 03:31:48;;;;;;;2.60;1.10;;;;;;;;;;5085781;28;20399;-81
2022/07/06 03:34:15;;;;;;;3.60;1.17;;;;;;;;;;5100059;28;20126;-82
2022/07/06 03:36:41;;;;;;;5.22;1.88;;;;;;;;;;5092338;28;20130;-82
2022/07/06 03:39:07;;;;;;;2.25;1.20;;;;;;;;;;5085823;28;20123;-82
2022/07/06 03:41:33;;;;;;;3.70;1.00;;;;;;;;;;5085985;28;20052;-82
2022/07/06 03:43:59;;;;;;;2.55;0.90;;;;;;;;;;5103326;28;20377;-81
2022/07/06 03:46:25;;;;;;;7.72;2.40;;;;;;;;;;5100166;28;20047;-82
2022/07/06 03:48:51;;;;;;;4.97;2.00;;;;;;;;;;5104975;28;20047;-83
2022/07/06 03:51:17;;;;;;;3.25;0.98;;;;;;;;;;5085798;28;20043;-84
2022/07/06 03:53:43;;;;;;;6.88;1.65;;;;;;;;;;5100077;28;20044;-82
2022/07/06 03:56:28;;;;;;;2.00;1.38;;;;;;;;;;5082685;28;20100;-82
2022/07/06 03:58:57;;;;;;;8.45;1.27;;;;;;;;;;5075812;28;20076;-81
2022/07/06 04:01:23;;;;;;;6.60;1.50;;;;;;;;;;5082420;28;20103;-82
2022/07/06 04:03:49;;;;;;;6.22;1.40;;;;;;;;;;5080757;28;20745;-82
2022/07/06 04:06:16;;;;;;;1.50;1.35;;;;;;;;;;5099729;28;20480;-82
2022/07/06 04:08:42;;;;;;;3.05;0.93;;;;;;;;;;5083870;28;20128;-82
2022/07/06 04:11:08;;;;;;;6.20;1.50;;;;;;;;;;5089569;28;20044;-81
2022/07/06 04:13:34;;;;;;;2.40;0.95;;;;;;;;;;5123727;27;20189;-82
2022/07/06 04:16:00;;;;;;;3.63;0.85;;;;;;;;;;5086352;28;20047;-81
2022/07/06 04:18:26;;;;;;;5.55;1.20;;;;;;;;;;5085584;28;20072;-82
2022/07/06 04:20:52;;;;;;;3.22;1.08;;;;;;;;;;5083141;28;20051;-81
2022/07/06 04:23:18;;;;;;;5.90;2.13;;;;;;;;;;5084256;28;20037;-81
2022/07/06 04:25:44;;;;;;;3.92;1.40;;;;;;;;;;5110020;28;20427;-82
2022/07/06 04:28:10;;;;;;;3.58;1.75;;;;;;;;;;5098981;28;20047;-81
2022/07/06 04:30:36;;;;;;;4.18;1.27;;;;;;;;;;5082496;28;20044;-81
2022/07/06 04:33:03;;;;;;;9.18;1.95;;;;;;;;;;5099998;28;20047;-81
2022/07/06 04:35:29;;;;;;;1.63;1.08;;;;;;;;;;5105522;28;20044;-81
2022/07/06 04:37:55;;;;;;;1.30;1.05;;;;;;;;;;5088861;28;20044;-82
2022/07/06 04:40:21;;;;;;;5.55;1.58;;;;;;;;;;5099762;28;20067;-81
2022/07/06 04:42:47;;;;;;;7.13;1.30;;;;;;;;;;5082136;28;20036;-82
2022/07/06 04:45:14;;;;;;;2.15;0.82;;;;;;;;;;5105552;28;20128;-83
2022/07/06 04:47:40;;;;;;;9.10;2.05;;;;;;;;;;5101479;28;20088;-82
2022/07/06 04:50:06;;;;;;;4.00;1.08;;;;;;;;;;5086463;28;20071;-82
2022/07/06 04:52:32;;;;;;;0.98;0.98;;;;;;;;;;5099136;28;20048;-82
2022/07/06 04:54:58;;;;;;;4.20;1.30;;;;;;;;;;5100609;28;20476;-81
2022/07/06 04:57:29;;;;;;;3.20;1.27;;;;;;;;;;5082616;28;20040;-81
2022/07/06 04:59:56;;;;;;;2.67;1.33;;;;;;;;;;5074999;28;20040;-81
2022/07/06 05:02:22;;;;;;;7.05;1.13;;;;;;;;;;5081736;28;20048;-84
2022/07/06 05:04:48;;;;;;;5.13;1.15;;;;;;;;;;5083611;28;20518;-85
2022/07/06 05:07:14;;;;;;;4.38;1.30;;;;;;;;;;5087671;28;20044;-89
2022/07/06 05:09:41;;;;;;;5.75;1.50;;;;;;;;;;5106706;28;20050;-85
2022/07/06 05:12:07;;;;;;;1.80;1.17;;;;;;;;;;5099148;28;20036;-86
2022/07/06 05:14:34;;;;;;;7.07;1.38;;;;;;;;;;5106079;28;20051;-92
2022/07/06 05:17:07;;;;;;;4.45;1.30;;;;;;;;;;5086668;28;20047;-90
2022/07/06 05:19:33;;;;;;;4.55;1.40;;;;;;;;;;5109237;28;20043;-90
2022/07/06 05:21:59;;;;;;;3.35;1.40;;;;;;;;;;5108691;28;20040;-89
2022/07/06 05:24:25;;;;;;;2.25;1.10;;;;;;;;;;5108997;28;20073;-90
2022/07/06 05:26:52;;;;;;;6.53;1.55;;;;;;;;;;5093797;28;20076;-88
2022/07/06 05:29:18;;;;;;;2.97;1.15;;;;;;;;;;5094864;28;20164;-88
2022/07/06 05:31:44;;;;;;;3.55;1.50;;;;;;;;;;5090094;28;20055;-87
2022/07/06 05:34:10;;;;;;;3.05;1.27;;;;;;;;;;5111309;28;20044;-87
2022/07/06 05:36:42;;;;;;;6.57;1.30;;;;;;;;;;5116831;28;20071;-83
2022/07/06 05:39:08;;;;;;;3.92;1.20;;;;;;;;;;5082757;28;20036;-82
2022/07/06 05:41:34;;;;;;;9.25;1.60;;;;;;;;;;5081230;28;20131;-85
2022/07/06 05:44:04;;;;;;;3.45;1.23;;;;;;;;;;5103019;28;20039;-88
2022/07/06 05:46:30;;;;;;;5.18;1.23;;;;;;;;;;5088333;28;20407;-83
2022/07/06 05:51:40;;;;;;;3.17;1.05;;;13.90;99.90;;;;;;5109784;28;20043;-81
2022/07/06 05:54:06;;;;;;;1.48;0.95;;;;;;;;;;5105316;28;20472;-82
2022/07/06 05:56:32;;;;;;;5.60;1.20;;;;;;;;;;5089219;28;20068;-82
2022/07/06 05:58:58;;;;;;;1.65;1.00;;;;;;;;;;5088164;28;20048;-82
2022/07/06 06:01:24;;;;;;;2.60;1.30;;;;;;;;;;5097921;28;20044;-83
2022/07/06 06:03:50;;;;;;;1.75;1.20;;;;;;;;;;5111840;28;20035;-81
2022/07/06 06:06:16;;;;;;;3.95;0.88;;;;;;;;;;5097184;28;20044;-81
2022/07/06 06:08:42;;;;;;;7.00;1.10;;;;;;;;;;5114053;28;20044;-81
2022/07/06 06:11:08;;;;;;;7.28;1.20;;;;;;;;;;5113150;28;20043;-81
2022/07/06 06:13:34;;;;;;;0.98;0.80;;;;;;;;;;5080652;28;20567;-81
2022/07/06 06:16:01;;;;;;;3.72;1.00;;;;;;;;;;5089812;28;20062;-82
2022/07/06 06:18:27;;;;;;;3.42;1.20;;;;;;;;;;5093397;28;20036;-82
2022/07/06 06:20:53;;;;;;;5.00;1.50;;;;;;;;;;5078024;28;20411;-82
2022/07/06 06:23:19;;;;;;;5.53;1.00;;;;;;;;;;5099487;28;20048;-81
2022/07/06 06:25:45;;;;;;;6.60;1.63;;;;;;;;;;5111249;28;20054;-81
2022/07/06 06:28:11;;;;;;;4.05;1.20;;;;;;;;;;5104690;28;20097;-81
2022/07/06 06:30:38;;;;;;;6.60;1.42;;;;;;;;;;5087524;28;20047;-82
2022/07/06 06:33:09;;;;;;;1.98;0.90;;;;;;;;;;5098154;28;20047;-82
2022/07/06 06:35:35;;;;;;;7.28;1.27;;;;;;;;;;5100862;28;20059;-81
2022/07/06 06:38:01;;;;;;;3.83;1.27;;;;;;;;;;5101549;28;20488;-81
2022/07/06 06:40:27;;;;;;;20.30;2.50;;;;;;;;;;5083566;28;20044;-82
2022/07/06 06:42:53;;;;;;;6.53;1.25;;;14.60;99.90;;;;;;5102515;28;20048;-82
2022/07/06 06:45:19;;;;;;;3.63;1.05;;;;;;;;;;5098139;28;20089;-81
2022/07/06 06:47:45;;;;;;;4.13;2.40;;;14.90;99.90;;;;;;5098611;28;20039;-81
2022/07/06 06:50:11;;;;;;;2.40;0.95;;;;;;;;;;5095734;28;20040;-82
2022/07/06 06:52:37;;;;;;;4.55;1.02;;;;;;;;;;5087042;28;20503;-82
2022/07/06 06:55:03;;;;;;;3.17;1.00;;;;;;;;;;5084140;28;20052;-81
2022/07/06 06:57:29;;;;;;;2.97;0.95;;;;;;;;;;5087562;28;20066;-83
2022/07/06 06:59:57;;;;;;;2.63;0.63;;;;;;;;;;5085781;28;20050;-82
2022/07/06 07:02:23;;;;;;;2.60;0.95;;;15.20;99.90;;;;;;5101495;28;20431;-84
2022/07/06 07:04:48;;;;;;;2.00;1.45;;;15.40;99.90;;;;;;5079751;28;20052;-82
2022/07/06 07:07:15;;;;;;;5.65;1.10;;;;;;;;;;5080662;28;20058;-83
2022/07/06 07:09:41;;;;;;;11.75;3.00;;;;;;;;;;5092599;28;20043;-82
2022/07/06 07:12:07;;;;;;;4.80;1.15;;;15.90;99.90;;;;;;5102339;28;20393;-95
2022/07/06 07:14:33;;;;;;;4.50;1.00;;;;;;;;;;5086467;28;20070;-87
2022/07/06 07:16:59;;;;;;;2.80;0.82;;;;;;;;;;5100791;28;20040;-87
2022/07/06 07:19:25;;;;;;;5.63;0.90;;;;;;;;;;5086573;28;20241;-89
2022/07/06 07:21:51;;;;;;;5.57;2.00;;;;;;;;;;5086242;28;20487;-86
2022/07/06 07:24:17;;;;;;;4.38;0.98;;;;;;;;;;5104163;28;20039;-85
2022/07/06 07:26:43;;;;;;;4.50;0.80;;;;;;;;;;5093788;28;20116;-85
2022/07/06 07:29:09;;;;;;;9.63;0.77;;;;;;;;;;5107154;28;20457;-88
2022/07/06 07:31:35;;;;;;;0.70;0.60;;;;;;;;;;5084359;28;20412;-90
2022/07/06 07:34:01;;;;;;;0.95;0.50;;;;;;;;;;5102382;28;20394;-87
2022/07/06 07:36:27;;;;;;;1.63;0.60;;;;;;;;;;5103654;28;20055;-89
2022/07/06 07:38:53;;;;;;;3.58;0.70;;;;;;;;;;5086087;28;20048;-90
2022/07/06 07:41:19;;;;;;;5.15;0.65;;;;;;;;;;5095444;28;20035;-86
2022/07/06 07:43:46;;;;;;;0.98;0.65;;;;;;;;;;5085107;28;20415;-94
2022/07/06 07:46:12;;;;;;;3.58;0.75;;;;;;;;;;5062830;28;20049;-84
2022/07/06 07:48:39;;;;;;;1.23;0.63;;;;;;;;;;5100378;28;20044;-94
2022/07/06 07:51:05;;;;;;;4.60;0.77;;;;;;;;;;5100137;28;20048;-92
2022/07/06 07:53:31;;;;;;;1.02;0.60;;;;;;;;;;5114966;27;20093;-91
2022/07/06 07:55:57;;;;;;;1.98;0.73;;;;;;;;;;5103362;28;20040;-94
2022/07/06 07:58:24;;;;;;;3.60;1.77;;;;;;;;;;5103815;28;20126;-89
2022/07/06 08:00:50;;;;;;;4.18;2.45;;;;;;;;;;5105013;28;20036;-93
2022/07/06 08:03:16;;;;;;;2.38;0.50;;;;;;;;;;5093745;28;20119;-94
2022/07/06 08:05:42;;;;;;;2.72;0.80;;;;;;;;;;5095028;28;20134;-94
2022/07/06 08:08:08;;;;;;;10.43;0.90;;;;;;;;;;5101617;28;20040;-92
2022/07/06 08:10:34;;;;;;;4.47;0.70;;;;;;;;;;5064468;28;20039;-92
2022/07/06 08:13:00;;;;;;;17.50;1.95;;;;;;;;;;5087855;28;20081;-94
2022/07/06 08:15:26;;;;;;;5.53;0.95;;;16.80;99.90;;;;;;5100108;28;20108;-92
2022/07/06 08:17:52;;;;;;;2.67;0.63;;;;;;;;;;5075510;28;20051;-94
2022/07/06 08:20:18;;;;;;;3.90;1.38;;;;;;;;;;5082222;28;20074;-92
2022/07/06 08:22:44;;;;;;;1.52;0.60;;;;;;;;;;5071202;28;20043;-86
2022/07/06 08:25:10;;;;;;;5.38;1.25;;;17.00;99.90;;;;;;5079420;28;20047;-84
2022/07/06 08:27:36;;;;;;;3.08;1.13;;;;;;;;;;5079358;28;20126;-84
2022/07/06 08:30:03;;;;;;;2.03;0.82;;;17.20;99.90;;;;;;5075848;28;20052;-84
2022/07/06 08:32:29;;;;;;;6.82;1.20;;;;;;;;;;5092277;28;20040;-84
2022/07/06 08:34:55;;;;;;;3.70;0.90;;;;;;;;;;5071441;28;20138;-82
2022/07/06 08:37:21;;;;;;;0.75;0.63;;;;;;;;;;5077548;28;20045;-83
2022/07/06 08:39:47;;;;;;;3.78;0.80;;;;;;;;;;5076493;28;20043;-81
2022/07/06 08:42:16;;;;;;;2.53;0.73;;;17.20;99.90;;;;;;5082497;28;20082;-82
2022/07/06 08:44:42;;;;;;;1.55;0.70;;;;;;;;;;5063150;28;20097;-82
2022/07/06 08:47:08;;;;;;;3.22;0.70;;;;;;;;;;5093424;28;20044;-81
2022/07/06 08:49:36;;;;;;;2.85;0.80;;;17.20;99.90;;;;;;5074021;28;20056;-81
2022/07/06 08:52:04;;;;;;;2.17;0.90;;;17.00;99.90;;;;;;5064706;28;20077;-81
2022/07/06 08:54:30;;;;;;;4.40;1.10;;;;;;;;;;5068762;28;20032;-81
2022/07/06 08:56:59;;;;;;;4.60;0.70;;;17.10;99.90;;;;;;5063870;28;20066;-83
2022/07/06 08:59:25;;;;;;;2.70;1.00;;;;;;;;;;5066734;28;20058;-82
2022/07/06 09:01:51;;;;;;;18.95;1.80;;;;;;;;;;5061838;28;20043;-85
2022/07/06 09:04:21;;;;;;;5.55;1.10;;;17.00;99.90;;;;;;5067381;28;20060;-81
2022/07/06 09:06:48;;;;;;;3.20;1.48;;;16.90;99.90;;;;;;5111110;28;20496;-83
2022/07/06 09:09:23;;;;;;;5.97;0.90;;;16.80;99.90;;;;;;5102350;28;20055;-80
2022/07/06 09:11:49;;;;;;;6.22;0.98;;;17.00;99.90;;;;;;5106126;28;20048;-84
2022/07/06 09:14:16;;;;;;;8.57;1.38;;;;;;;;;;5103009;28;20115;-83
2022/07/06 09:16:42;;;;;;;0.95;0.52;;;;;;;;;;5113388;28;20578;-83
2022/07/06 09:19:13;;;;;;;1.40;0.85;;;17.40;99.90;;;;;;5098588;28;20088;-86
2022/07/06 09:21:41;;;;;;;7.30;0.80;;;17.20;99.90;;;;;;5079687;28;20048;-80
2022/07/06 09:24:10;;;;;;;1.38;0.70;;;17.80;99.90;;;;;;5104452;28;20036;-83
2022/07/06 09:26:37;;;;;;;3.25;0.70;;;17.60;99.90;;;;;;5091998;28;20040;-82
2022/07/06 09:29:04;;;;;;;4.15;0.80;;;17.40;99.90;;;;;;5095552;28;20043;-82
2022/07/06 09:31:30;;;;;;;4.10;0.68;;;;;;;;;;5090535;28;20040;-83
2022/07/06 09:34:05;;;;;;;6.65;1.50;;;17.60;99.90;;;;;;5083952;28;20040;-83
2022/07/06 09:36:44;;;;;;;5.82;1.02;;;17.70;99.90;;;;;;5094104;28;20055;-80
2022/07/06 09:39:21;;;;;;;2.58;1.02;;;18.00;99.90;;;;;;5099554;28;20092;-82
2022/07/06 09:41:48;;;;;;;5.63;1.73;;;17.90;99.90;;;;;;5077233;28;20051;-82
2022/07/06 09:44:38;;;;;;;4.63;1.00;;;17.70;99.90;;;;;;5099305;28;20032;-87
2022/07/06 09:47:09;;;;;;;0.85;0.75;;;17.80;99.90;;;;;;5101161;28;20043;-85
2022/07/06 09:49:36;;;;;;;1.75;0.98;;;18.00;99.90;;;;;;5102886;28;20399;-82
2022/07/06 09:52:05;;;;;;;2.08;0.65;;;18.00;99.90;;;;;;5100652;28;20047;-85
2022/07/06 09:54:31;;;;;;;3.92;1.10;;;;;;;;;;5071743;28;20126;-85
2022/07/06 09:56:57;;;;;;;3.30;1.05;;;18.00;99.90;;;;;;5095181;28;20051;-83
2022/07/06 09:59:29;;;;;;;3.55;0.80;;;18.20;99.90;;;;;;5101445;28;20079;-83
2022/07/06 10:01:57;;;;;;;3.55;1.00;;;18.00;99.90;;;;;;5105312;28;20058;-85
2022/07/06 10:04:24;;;;;;;2.80;0.90;;;18.20;99.90;;;;;;5100320;28;20475;-85
2022/07/06 10:06:50;;;;;;;4.65;1.02;;;;;;;;;;5081946;28;20078;-86
2022/07/06 10:09:19;;;;;;;3.15;0.90;;;18.20;99.90;;;;;;5101511;28;20435;-87
2022/07/06 10:11:51;;;;;;;1.38;0.90;;;18.40;99.90;;;;;;5103228;28;20044;-87
2022/07/06 10:14:22;;;;;;;2.72;0.80;;;18.50;99.90;;;;;;5102584;28;20044;-83
2022/07/06 10:16:49;;;;;;;1.30;1.02;;;18.70;99.90;;;;;;5083618;28;20103;-82
2022/07/06 10:19:16;;;;;;;1.92;0.70;;;18.60;99.90;;;;;;5103103;28;20089;-80
2022/07/06 10:21:43;;;;;;;2.53;0.93;;;18.60;99.90;;;;;;5100206;28;20041;-81
2022/07/06 10:24:10;;;;;;;3.88;1.20;;;;;;;;;;5100083;28;20112;-83
2022/07/06 10:26:37;;;;;;;6.40;1.30;;;18.80;99.90;;;;;;5103716;28;20408;-81
2022/07/06 10:29:04;;;;;;;1.50;1.20;;;18.80;99.90;;;;;;5087121;28;20381;-85
2022/07/06 10:31:32;;;;;;;4.03;0.90;;;18.90;99.90;;;;;;5105692;28;20051;-87
2022/07/06 10:34:00;;;;;;;1.85;0.68;;;18.90;99.90;;;;;;5116165;28;20404;-85
2022/07/06 10:36:27;;;;;;;2.88;0.90;;;19.10;99.90;;;;;;5088510;28;20399;-85
2022/07/06 10:41:02;;;;;;;5.70;1.00;;;19.20;99.90;;;;;;5086052;28;20051;-83
2022/07/06 10:41:44;;;;;;;2.65;1.15;;;;;;;;;;5096370;28;20040;-87
2022/07/06 10:44:16;;;;;;;2.80;1.00;;;19.20;99.90;;;;;;5091869;28;20096;-88
2022/07/06 10:46:53;;;;;;;2.15;0.95;;;19.30;99.90;;;;;;5091146;28;20047;-87
2022/07/06 10:49:19;;;;;;;1.63;0.63;;;;;;;;;;5099740;28;20098;-83
2022/07/06 10:51:46;;;;;;;2.13;0.80;;;19.50;99.90;;;;;;5085940;28;20116;-86
2022/07/06 10:54:13;;;;;;;1.48;0.63;;;;;;;;;;5107269;28;20040;-83
2022/07/06 10:56:45;;;;;;;3.55;0.80;;;19.40;99.90;;;;;;5106727;28;20040;-85
2022/07/06 10:59:23;;;;;;;3.22;0.70;;;19.50;99.90;;;;;;5092262;28;20036;-82
2022/07/06 11:02:14;;;;;;;2.05;0.70;;;19.10;99.90;;;;;;5085504;28;20073;-84
2022/07/06 11:04:43;;;;;;;3.50;0.98;;;19.50;99.90;;;;;;5094362;28;20051;-84
2022/07/06 11:07:14;;;;;;;5.18;0.70;;;19.40;99.90;;;;;;5108118;28;21120;-86
2022/07/06 11:09:47;;;;;;;5.40;1.00;;;;;;;;;;5087739;28;20044;-83
2022/07/06 11:12:20;;;;;;;1.95;1.08;;;19.50;99.90;;;;;;5086341;28;20058;-83
2022/07/06 11:14:48;;;;;;;1.08;0.98;;;19.40;99.90;;;;;;5103364;28;20040;-88
2022/07/06 11:17:15;;;;;;;2.65;1.00;;;19.70;99.90;;;;;;5077970;28;20047;-88
2022/07/06 11:19:58;;;;;;;2.30;0.85;;;19.90;99.90;;;;;;5110895;28;20035;-84
2022/07/06 11:22:26;;;;;;;0.88;0.80;;;19.90;99.90;;;;;;5070173;28;20047;-81
2022/07/06 11:24:52;;;;;;;3.85;0.80;;;;;;;;;;5102496;28;20036;-81
2022/07/06 11:27:18;;;;;;;1.50;0.70;;;;;;;;;;5095252;27;20052;-82
2022/07/06 11:29:45;;;;;;;2.50;1.27;;;;;;;;;;5093284;28;20050;-83
2022/07/06 11:32:14;;;;;;;1.58;0.75;;;19.80;99.90;;;;;;5093451;28;20035;-82
2022/07/06 11:34:44;;;;;;;0.68;0.68;;;20.00;99.90;;;;;;5102722;27;20051;-82
2022/07/06 11:37:14;;;;;;;2.35;0.80;;;19.90;99.90;;;;;;5093697;28;20039;-82
2022/07/06 11:39:44;;;;;;;3.25;0.82;;;20.00;99.90;;;;;;5101879;28;20054;-82
2022/07/06 11:42:12;;;;;;;3.60;0.85;;;20.20;99.90;;;;;;5091356;28;20047;-84
2022/07/06 11:44:39;;;;;;;3.58;0.85;;;20.40;99.90;;;;;;5106832;27;20494;-82
2022/07/06 11:47:07;;;;;;;2.55;0.70;;;20.20;99.90;;;;;;5094864;28;20074;-81
2022/07/06 11:49:35;;;;;;;2.50;0.93;;;20.40;99.90;;;;;;5106126;27;20062;-84
2022/07/06 11:52:11;;;;;;;1.25;0.70;;;20.50;99.90;;;;;;5103340;28;20114;-85
2022/07/06 11:54:37;;;;;;;2.88;0.80;;;20.70;99.90;;;;;;5112137;27;20031;-81
2022/07/06 11:57:06;;;;;;;6.22;1.13;;;20.50;99.90;;;;;;5110840;27;20142;-82
2022/07/06 11:59:34;;;;;;;2.22;0.90;;;20.30;99.90;;;;;;5110628;28;20568;-82
2022/07/06 12:02:08;;;;;;;2.67;1.00;;;20.20;99.90;;;;;;5111696;28;20093;-82
2022/07/06 12:04:36;;;;;;;1.02;0.88;;;20.40;99.90;;;;;;5093756;28;20051;-83
2022/07/06 12:07:08;;;;;;;1.02;0.75;;;20.20;99.90;;;;;;5115068;27;20503;-82
2022/07/06 12:09:36;;;;;;;1.33;0.75;;;20.30;99.90;;;;;;5111024;28;20514;-86
2022/07/06 12:12:03;;;;;;;8.20;1.77;;;20.50;99.90;;;;;;5112315;28;20043;-85
2022/07/06 12:14:32;;;;;;;3.17;0.90;;;20.30;99.90;;;;;;5101933;28;20160;-83
2022/07/06 12:17:03;;;;;;;4.82;1.05;;;20.50;99.90;;;;;;5092212;27;20050;-82
2022/07/06 12:19:56;;;;;;;1.88;0.82;;;20.50;99.90;;;;;;5102631;28;20082;-86
2022/07/06 12:22:26;;;;;;;0.77;0.65;;;20.50;99.90;;;;;;5095377;28;20039;-82
2022/07/06 12:24:52;;;;;;;1.05;0.95;;;;;;;;;;5105253;28;20091;-84
2022/07/06 12:27:20;;;;;;;2.42;0.98;;;20.40;99.90;;;;;;5081968;28;20495;-82
2022/07/06 12:29:47;;;;;;;0.60;0.60;;;20.40;99.90;;;;;;5112186;28;20046;-83
2022/07/06 12:32:26;;;;;;;1.83;0.90;;;20.30;99.90;;;;;;5109719;28;20035;-84
2022/07/06 12:35:09;;;;;;;3.05;0.90;;;20.40;99.90;;;;;;5081977;28;20047;-81
2022/07/06 12:37:35;;;;;;;1.83;0.90;;;;;;;;;;5102461;28;20042;-82
2022/07/06 12:40:01;;;;;;;0.95;0.93;;;;;;;;;;5084909;28;20043;-81
2022/07/06 12:42:28;;;;;;;0.88;0.82;;;20.40;99.90;;;;;;5085370;28;20088;-82
2022/07/06 12:44:54;;;;;;;1.40;0.77;;;20.70;99.90;;;;;;5111338;28;20086;-82
2022/07/06 12:47:23;;;;;;;3.78;0.70;;;20.30;99.90;;;;;;5109093;28;20561;-82
2022/07/06 12:50:08;;;;;;;0.73;0.63;;;20.20;99.90;;;;;;5111101;28;20606;-82
2022/07/06 12:52:36;;;;;;;1.08;0.70;;;;;;;;;;5105706;28;20052;-83
2022/07/06 12:55:03;;;;;;;1.42;0.73;;;20.20;99.90;;;;;;5093713;28;20055;-83
2022/07/06 12:57:43;;;;;;;1.15;0.80;;;20.40;99.90;;;;;;5074653;28;20048;-82
2022/07/06 13:00:09;;;;;;;1.50;0.80;;;;;;;;;;5110272;27;20071;-83
2022/07/06 13:02:39;;;;;;;0.88;0.80;;;;;;;;;;5108742;28;20479;-82
2022/07/06 13:05:10;;;;;;;1.45;0.80;;;20.00;99.90;;;;;;5110877;28;20063;-82
2022/07/06 13:07:37;;;;;;;2.38;1.00;;;20.00;99.90;;;;;;5102198;27;20062;-82
2022/07/06 13:10:05;;;;;;;3.88;1.13;;;20.00;99.90;;;;;;5094045;28;20123;-82
2022/07/06 13:12:32;;;;;;;4.90;1.50;;;20.10;99.90;;;;;;5101027;28;20028;-82
2022/07/06 13:14:58;;;;;;;1.13;0.60;;;;;;;;;;5091444;28;20146;-82
2022/07/06 13:17:24;;;;;;;2.08;0.85;;;;;;;;;;5109105;28;20043;-82
2022/07/06 13:19:50;;;;;;;3.60;1.10;;;;;;;;;;5093032;28;20050;-83
2022/07/06 13:22:16;;;;;;;1.50;1.02;;;;;;;;;;5105066;28;20078;-83
2022/07/06 13:24:43;;;;;;;2.08;0.77;;;;;;;;;;5111121;28;20050;-83
2022/07/06 13:27:09;;;;;;;6.82;1.77;;;20.10;99.90;;;;;;5099501;28;20565;-83
2022/07/06 13:29:35;;;;;;;2.05;0.93;;;;;;;;;;5092887;28;20083;-81
2022/07/06 13:32:01;;;;;;;3.95;1.13;;;;;;;;;;5085844;28;20047;-84
2022/07/06 13:34:27;;;;;;;8.55;1.13;;;20.00;99.90;;;;;;5103215;28;20059;-85
2022/07/06 13:36:53;;;;;;;1.02;0.80;;;20.00;99.90;;;;;;5081740;28;20557;-86
2022/07/06 13:39:19;;;;;;;2.80;0.90;;;19.80;99.90;;;;;;5108103;28;20061;-87
2022/07/06 13:41:45;;;;;;;3.65;1.10;;;;;;;;;;5094093;28;20048;-88
2022/07/06 13:44:11;;;;;;;0.63;0.57;;;19.90;99.90;;;;;;5095963;28;20055;-84
2022/07/06 13:46:42;;;;;;;2.67;1.00;;;19.70;99.90;;;;;;5077554;28;20044;-83
2022/07/06 13:49:08;;;;;;;3.30;1.05;;;;;;;;;;5100326;28;22108;-83
2022/07/06 13:51:34;;;;;;;3.45;0.65;;;;;;;;;;5100827;28;20047;-85
2022/07/06 13:54:00;;;;;;;1.08;0.90;;;;;;;;;;5085089;28;20036;-84
2022/07/06 13:56:52;;;;;;;4.43;1.02;;;19.40;99.90;;;;;;5108644;28;20047;-91
2022/07/06 13:59:21;;;;;;;3.28;0.90;;;;;;;;;;5096292;28;20404;-84
2022/07/06 14:01:47;;;;;;;2.20;1.10;;;;;;;;;;5108727;28;20104;-84
2022/07/06 14:04:13;;;;;;;3.67;1.77;;;19.30;99.90;;;;;;5112850;28;20130;-84
2022/07/06 14:06:39;;;;;;;2.15;1.00;;;;;;;;;;5092512;28;20135;-84